메인 페이지
METAR-TAF:

METAR-TAF

공항 :

뉴델리, 인도

인디라 간디 국제공항

위도: 28-34N, 경도: 077-07E, 고도: 220m

현재 날씨관측

예보는 37분 전, 00:30시(UTC)에 발표되었습니다.
무풍
온도 12°C
습도 94%
기압 1011 hPa
시정: 0700m
낮은 안개

METAR: VIDP 180030Z 00000KT 0700 R28/2000 R29/1700 MIFG NSC 12/11 Q1011 BECMG 0600 MIFG

시각: 06:37 (01:07 UTC)

예보

예보는 2 시간 6분 전, 23:01시(UTC)에 발표되었습니다.
예보 대상 시간: 18일 00시부터 19일 06시까지 (UTC)
3kt
시정: 0500m
낮은 안개
전환 중
18일 03시부터 18일 05시까지 (UTC)
남서5kt
시정: 2500m
고도 10000ft 상공 구름 조금
연무
전환 중
18일 08시부터 18일 10시까지 (UTC)
서북서3kt
시정: 4000m
고도 10000ft 상공 구름 보통
연무
전환 중
18일 18시부터 18일 20시까지 (UTC)
5kt
시정: 1500m
고도 10000ft 상공 구름 조금
연무, 박무
전환 중
19일 00시부터 19일 02시까지 (UTC)
여러 방향의 바람 3kt
시정: 0600m
고도 4000ft 상공 구름 조금
고도 10000ft 상공 구름 보통
낮은 안개
전환 중
19일 04시부터 19일 06시까지 (UTC)
6kt
시정: 2500m
고도 4000ft 상공 구름 보통
고도 10000ft 상공 구름 보통
연무

TAF: VIDP 172301Z 1800/1906 27003KT 0500 MIFG NSC BECMG 1803/1805 23005KT 2500 HZ FEW100 BECMG 1808/1810 29003KT 4000 HZ SCT100 BECMG 1818/1820 10005KT 1500 HZ BR FEW100 BECMG 1900/1902 VRB03KT 0600 MIFG FEW040 SCT100 BECMG 1904/1906 09006KT 2500 HZ SCT040 SCT100

4,000개 이상의 공항 관측 자료 및 예보 (METAR 및 TAF 보고).

지도상에서 검색 가능한 기상관측소가 노란 점과 빨간 점으로 표시되어 있습니다.

기상관측소 명을 보려면 표시 위로 마우스를 이동하세요.

날씨 관측과 예보를 보려면 클릭하세요.

지도 변경 : 확대하려면 엑스 표시가 있는 녹색 버튼, 축소하려면 빼기 표시가 있는 녹색 버튼, 다음 페이지의 지도를 보려면 녹색 화살표를 클릭하세요.


METAR-TAF: